Time;durP1;ratioP1;P1;durP2;ratioP2;P2;SDS_P1;SDS_P2;PMS_P1;PMS_P2;Temp;Humidity;BMP_temperature;BMP_pressure;BME280_temperature;BME280_humidity;BME280_pressure;Samples;Min_cycle;Max_cycle;Signal;HPM_P1;HPM_P2
2022/02/07 00:00:40;;;;;;;0.20;0.20;;;;;;;5.84;100.00;99905.09;5030185;28;20056;-81
2022/02/07 00:03:47;;;;;;;0.10;0.10;;;;;;;5.84;100.00;99918.94;5030650;28;20048;-82
2022/02/07 00:06:51;;;;;;;0.10;0.10;;;;;;;5.80;100.00;99937.56;5030154;28;20048;-81
2022/02/07 00:09:54;;;;;;;0.10;0.10;;;;;;;5.74;100.00;99955.91;5031268;28;20082;-81
2022/02/07 00:12:59;;;;;;;0.10;0.10;;;;;;;5.64;100.00;99968.03;5030710;28;20052;-82
2022/02/07 00:16:02;;;;;;;2.60;0.50;;;;;;;5.64;100.00;99984.63;5030742;28;20072;-82
2022/02/07 00:19:10;;;;;;;0.10;0.10;;;;;;;5.57;100.00;99984.81;5030561;28;20072;-81
2022/02/07 00:22:14;;;;;;;0.10;0.10;;;;;;;5.59;100.00;99987.16;5030476;28;20048;-80
2022/02/07 00:25:20;;;;;;;0.30;0.30;;;;;;;5.58;100.00;100005.72;5030824;28;20099;-79
2022/02/07 00:28:24;;;;;;;0.17;0.17;;;;;;;5.52;100.00;100015.75;5030486;28;20072;-80
2022/02/07 00:31:28;;;;;;;0.10;0.10;;;;;;;5.37;100.00;100018.13;5029970;28;20513;-80
2022/02/07 00:34:31;;;;;;;0.10;0.10;;;;;;;5.32;100.00;100026.16;5030244;28;20072;-80
2022/02/07 00:37:36;;;;;;;0.30;0.30;;;;;;;5.23;100.00;100017.72;5031105;28;20415;-80
2022/02/07 00:44:09;;;;;;;0.35;0.35;;;;;;;5.19;100.00;100039.13;5011713;28;20057;-82
2022/02/07 00:47:15;;;;;;;0.20;0.20;;;;;;;5.13;100.00;100038.13;5010928;28;20053;-80
2022/02/07 00:50:19;;;;;;;0.30;0.30;;;;;;;5.08;100.00;100042.19;5022456;28;20060;-82
2022/02/07 00:53:23;;;;;;;0.20;0.20;;;;;;;5.05;100.00;100053.28;5029246;28;20053;-82
2022/02/07 00:56:27;;;;;;;0.10;0.10;;;;;;;5.00;100.00;100073.16;5029345;28;20060;-81
2022/02/07 00:59:30;;;;;;;2.25;0.38;;;;;;;4.97;100.00;100079.53;5031109;28;20053;-82
2022/02/07 01:02:34;;;;;;;0.40;0.20;;;;;;;5.00;100.00;100082.19;5031383;28;20049;-82
2022/02/07 01:05:37;;;;;;;3.22;0.30;;;;;;;5.02;100.00;100098.34;5031385;28;20052;-81
2022/02/07 01:08:47;;;;;;;0.20;0.20;;;;;;;4.92;100.00;100094.63;5030188;28;20398;-82
2022/02/07 01:58:21;;;;;;;0.10;0.10;;;;;;;3.84;100.00;100230.81;5014298;28;20066;-82
2022/02/07 02:01:25;;;;;;;0.28;0.28;;;;;;;3.82;100.00;100233.22;5012805;28;20056;-81
2022/02/07 02:04:28;;;;;;;0.40;0.40;;;;;;;3.80;100.00;100241.13;5014210;28;20159;-82
2022/02/07 02:07:32;;;;;;;0.20;0.20;;;;;;;3.77;100.00;100241.97;5012510;28;20049;-81
2022/02/07 02:10:38;;;;;;;0.30;0.30;;;;;;;3.74;100.00;100238.09;5026761;28;20056;-82
2022/02/07 02:46:01;;;;;;;0.20;0.20;;;;;;;3.65;100.00;100289.38;5033120;28;20048;-81
2022/02/07 02:49:04;;;;;;;0.38;0.38;;;;;;;3.61;100.00;100296.94;5032446;28;20087;-81
2022/02/07 02:52:08;;;;;;;0.30;0.30;;;;;;;3.52;100.00;100310.44;5031636;28;20056;-81
2022/02/07 02:55:12;;;;;;;0.10;0.10;;;;;;;3.45;100.00;100327.06;5032613;28;20402;-81
2022/02/07 02:58:19;;;;;;;0.38;0.38;;;;;;;3.44;100.00;100333.78;5031541;28;20052;-82
2022/02/07 03:01:22;;;;;;;1.00;0.77;;;;;;;3.45;100.00;100335.31;5032426;28;20052;-81
2022/02/07 03:04:26;;;;;;;0.50;0.50;;;;;;;3.42;100.00;100352.69;5032869;28;20056;-81
2022/02/07 03:07:29;;;;;;;0.30;0.30;;;;;;;3.40;100.00;100350.31;5032666;28;20048;-81
2022/02/07 03:13:57;;;;;;;0.30;0.30;;;;;;;3.31;100.00;100363.06;5032592;28;20056;-82
2022/02/07 03:17:00;;;;;;;19.33;0.90;;;;;;;3.22;100.00;100365.53;5032281;28;20052;-80
2022/02/07 03:20:04;;;;;;;0.47;0.40;;;;;;;3.16;100.00;100379.00;5032181;28;20056;-82
2022/02/07 03:23:08;;;;;;;0.47;0.47;;;;;;;3.12;100.00;100380.22;5031231;28;20053;-81
2022/02/07 03:26:14;;;;;;;0.10;0.10;;;;;;;3.01;100.00;100374.84;5031447;28;20052;-80
2022/02/07 03:29:18;;;;;;;0.20;0.20;;;;;;;2.97;100.00;100383.13;5031582;28;20056;-81
2022/02/07 03:32:21;;;;;;;0.57;0.38;;;;;;;2.92;100.00;100374.56;5053916;28;20438;-81
2022/02/07 03:35:24;;;;;;;1.05;0.52;;;;;;;2.91;100.00;100395.00;5031160;28;20057;-81
2022/02/07 03:38:28;;;;;;;0.10;0.10;;;;;;;2.93;100.00;100387.91;5031908;28;20136;-81
2022/02/07 03:41:31;;;;;;;0.32;0.32;;;;;;;2.94;100.00;100388.69;5032146;28;20506;-82
2022/02/07 03:44:34;;;;;;;1.60;0.50;;;;;;;2.93;100.00;100407.16;5032021;28;20131;-81
2022/02/07 03:47:38;;;;;;;0.20;0.20;;;;;;;2.99;100.00;100390.97;5031877;28;20076;-81
2022/02/07 03:50:41;;;;;;;0.30;0.30;;;;;;;3.04;100.00;100387.78;5031029;28;20052;-81
2022/02/07 03:53:44;;;;;;;0.50;0.50;;;;;;;3.07;100.00;100403.47;5030792;28;20048;-81
2022/02/07 03:56:48;;;;;;;1.65;1.17;;;;;;;3.10;100.00;100397.13;5032392;28;20124;-82
2022/02/07 03:59:51;;;;;;;0.20;0.20;;;;;;;3.15;100.00;100415.16;5031252;28;20505;-81
2022/02/07 04:02:57;;;;;;;0.70;0.70;;;;;;;3.16;100.00;100414.75;5032117;28;20056;-81
2022/02/07 04:06:05;;;;;;;0.65;0.45;;;;;;;3.12;100.00;100422.25;5030860;28;20068;-81
2022/02/07 04:09:11;;;;;;;0.25;0.25;;;;;;;3.15;100.00;100415.94;5030979;28;20510;-82
2022/02/07 04:12:22;;;;;;;0.47;0.47;;;;;;;3.14;100.00;100414.38;5030834;28;20406;-81
2022/02/07 04:15:25;;;;;;;0.10;0.10;;;;;;;3.15;100.00;100409.66;5030805;28;20053;-82
2022/02/07 04:18:35;;;;;;;0.35;0.35;;;;;;;3.17;100.00;100390.75;5030531;28;20060;-80
2022/02/07 04:21:38;;;;;;;0.17;0.17;;;;;;;3.05;100.00;100392.84;5010647;28;20510;-81
2022/02/07 04:24:42;;;;;;;0.20;0.20;;;;;;;3.03;100.00;100403.50;5012050;28;20052;-82
2022/02/07 04:27:46;;;;;;;2.60;0.82;;;;;;;3.07;100.00;100406.22;5031389;28;20056;-82
2022/02/07 04:30:49;;;;;;;0.30;0.30;;;;;;;3.11;100.00;100406.94;5030213;28;20060;-81
2022/02/07 04:33:53;;;;;;;0.25;0.25;;;;;;;3.10;100.00;100416.38;5030203;28;20064;-82
2022/02/07 04:36:57;;;;;;;0.20;0.20;;;;;;;3.15;100.00;100409.66;5030293;28;20540;-81
2022/02/07 04:40:00;;;;;;;0.17;0.17;;;;;;;3.20;100.00;100401.72;5022823;28;20057;-81
2022/02/07 04:43:05;;;;;;;0.20;0.20;;;;;;;3.23;100.00;100405.63;5011502;28;20061;-81
2022/02/07 04:46:31;;;;;;;0.30;0.17;;;;;;;3.22;100.00;100406.81;5033612;28;20072;-82
2022/02/07 05:16:04;;;;;;;0.60;0.60;;;;;;;3.04;100.00;100438.06;5035115;28;20061;-82
2022/02/07 05:19:08;;;;;;;0.20;0.20;;;;;;;3.00;100.00;100455.81;5034847;28;20060;-82
2022/02/07 05:22:11;;;;;;;20.52;1.48;;;;;;;2.93;100.00;100451.16;5034581;28;20056;-82
2022/02/07 05:25:15;;;;;;;0.38;0.38;;;;;;;2.99;100.00;100463.28;5034589;28;20403;-81
2022/02/07 05:28:18;;;;;;;10.60;0.98;;;;;;;2.91;100.00;100456.28;5034372;28;20530;-82
2022/02/07 05:31:22;;;;;;;1.13;1.13;;;;;;;2.45;100.00;100471.69;5033526;28;20048;-81
2022/02/07 05:34:26;;;;;;;0.20;0.20;;;;;;;2.57;100.00;100480.19;5034490;28;20124;-82
2022/02/07 05:37:31;;;;;;;1.85;1.15;;;;;;;2.55;100.00;100484.53;5034269;28;20506;-81
2022/02/07 05:40:44;;;;;;;0.40;0.40;;;;;;;2.51;100.00;100495.56;5033866;28;20056;-82
2022/02/07 05:43:50;;;;;;;0.40;0.40;;;;;;;2.56;100.00;100508.88;5034078;28;20064;-81
2022/02/07 05:46:54;;;;;;;6.03;1.33;;;;;;;2.53;100.00;100526.19;5033261;28;20061;-82
2022/02/07 05:49:57;;;;;;;0.20;0.20;;;;;;;2.49;100.00;100522.66;5033715;28;20057;-82
2022/02/07 05:53:00;;;;;;;1.50;1.20;;;;;;;2.47;100.00;100529.78;5033476;28;20056;-82
2022/02/07 05:56:04;;;;;;;5.05;0.60;;;;;;;2.51;100.00;100527.78;5033253;28;20049;-82
2022/02/07 05:59:08;;;;;;;0.70;0.60;;;;;;;2.59;100.00;100524.56;5033191;28;20136;-81
2022/02/07 06:02:11;;;;;;;0.20;0.20;;;;;;;2.68;100.00;100535.88;5033551;28;20112;-81
2022/02/07 06:05:15;;;;;;;2.65;0.77;;;;;;;2.84;100.00;100538.88;5033315;28;20117;-82
2022/02/07 06:08:18;;;;;;;0.50;0.50;;;;;;;2.96;100.00;100538.38;5034069;28;20060;-82
2022/02/07 06:11:22;;;;;;;2.17;0.73;;;;;;;3.06;100.00;100537.50;5033065;28;20056;-81
2022/02/07 06:14:26;;;;;;;0.43;0.43;;;;;;;3.16;100.00;100537.81;5034022;28;20053;-81
2022/02/07 06:17:29;;;;;;;0.60;0.60;;;;;;;3.20;100.00;100544.84;5033990;28;20057;-82
2022/02/07 06:20:32;;;;;;;1.45;1.17;;;;;;;3.24;100.00;100548.31;5032940;28;20049;-82
2022/02/07 06:23:36;;;;;;;1.50;0.95;;;;;;;3.29;100.00;100555.34;5033854;28;20058;-82
2022/02/07 06:26:39;;;;;;;0.20;0.20;;;;;;;3.26;100.00;100559.72;5033171;28;20057;-82
2022/02/07 06:29:43;;;;;;;0.60;0.60;;;;;;;3.25;100.00;100565.63;5033674;28;20054;-82
2022/02/07 06:32:47;;;;;;;3.72;1.38;;;;;;;3.24;100.00;100573.09;5033495;28;20053;-83
2022/02/07 06:35:53;;;;;;;0.50;0.50;;;;;;;3.20;100.00;100585.31;5033413;28;20049;-82
2022/02/07 06:38:57;;;;;;;0.17;0.17;;;;;;;3.17;100.00;100594.38;5032421;28;20061;-82
2022/02/07 06:42:00;;;;;;;0.47;0.45;;;;;;;3.17;100.00;100599.88;5037235;28;20057;-81
2022/02/07 06:45:04;;;;;;;0.20;0.20;;;;;;;3.14;100.00;100600.72;5035742;28;20053;-83
2022/02/07 06:48:08;;;;;;;5.15;0.75;;;;;;;3.08;100.00;100598.41;5036128;28;20048;-82
2022/02/07 06:51:11;;;;;;;3.88;1.08;;;;;;;2.99;100.00;100600.03;5035356;28;20048;-83
2022/02/07 06:54:15;;;;;;;2.15;1.05;;;;;;;2.92;100.00;100600.88;5033236;28;20057;-82
2022/02/07 06:57:21;;;;;;;1.10;1.08;;;;;;;2.90;100.00;100606.00;5040338;28;20048;-82
2022/02/07 07:00:25;;;;;;;0.50;0.50;;;;;;;2.83;100.00;100619.84;5035930;28;20104;-83
2022/02/07 07:03:33;;;;;;;0.68;0.68;;;;;;;2.77;100.00;100643.44;5034161;28;20446;-82
2022/02/07 07:06:38;;;;;;;4.97;1.92;;;;;;;2.70;100.00;100649.00;5035640;28;20052;-82
2022/02/07 07:09:44;;;;;;;5.03;1.30;;;;;;;2.70;100.00;100662.75;5033656;28;20056;-83
2022/02/07 07:12:50;;;;;;;1.08;0.98;;;;;;;2.80;100.00;100675.63;5033938;28;20061;-82
2022/02/07 07:16:02;;;;;;;10.88;1.95;;;;;;;2.86;100.00;100682.28;5032945;28;20048;-82
2022/02/07 07:19:06;;;;;;;5.38;1.58;;;;;;;2.98;100.00;100686.53;5032402;28;20060;-82
2022/02/07 07:22:09;;;;;;;1.95;1.27;;;;;;;3.02;100.00;100666.06;5031665;28;20514;-82
2022/02/07 07:25:17;;;;;;;0.65;0.63;;;;;;;3.05;100.00;100659.72;5032660;28;20598;-82
2022/02/07 07:28:22;;;;;;;12.75;1.33;;;;;;;2.46;100.00;100655.44;5031729;28;20052;-82
2022/02/07 07:31:27;;;;;;;2.70;1.33;;;;;;;2.79;100.00;100662.31;4200670;22;20057;-48
2022/02/07 07:34:31;;;;;;;3.70;1.63;;;;;;;2.83;100.00;100674.06;5004202;28;20057;-48
2022/02/07 07:37:35;;;;;;;2.05;1.90;;;;;;;2.83;100.00;100696.84;5002182;28;20069;-48
2022/02/07 07:40:39;;;;;;;13.15;3.20;;;;;;;2.82;100.00;100695.28;5003102;28;20402;-49
2022/02/07 08:46:44;;;;;;;0.35;0.35;;;;;;;4.49;100.00;100693.28;4993697;28;20046;-49
2022/02/07 08:49:47;;;;;;;34.65;3.50;;;;;;;4.51;100.00;100693.63;5004942;28;20044;-49
2022/02/07 08:52:52;;;;;;;7.22;2.35;;;;;;;4.54;100.00;100681.78;5032301;28;20049;-49
2022/02/07 08:55:56;;;;;;;15.38;2.78;;;;;;;4.44;100.00;100679.94;5031889;28;20401;-49
2022/02/07 08:58:59;;;;;;;21.73;2.05;;;;;;;4.32;100.00;100669.47;5032133;28;20056;-49
2022/02/07 09:08:49;;;;;;;8.90;1.38;;;;;;;4.52;100.00;100662.13;5012163;28;20053;-49
2022/02/07 09:11:50;;;;;;;4.05;1.05;;;;;;;4.53;100.00;100668.38;5012367;28;20493;-50
2022/02/07 09:15:01;;;;;;;1.23;1.13;;;;;;;4.56;100.00;100673.09;5011995;28;20064;-49
2022/02/07 09:18:07;;;;;;;1.23;1.00;;;;;;;4.61;100.00;100676.16;5012008;28;20061;-49
2022/02/07 09:21:12;;;;;;;4.65;2.40;;;;;;;4.69;100.00;100698.91;5011730;28;20049;-49
2022/02/07 09:24:17;;;;;;;12.82;1.88;;;;;;;4.74;100.00;100689.41;5012231;28;20405;-46
2022/02/07 09:27:20;;;;;;;1.55;0.95;;;;;;;4.75;100.00;100682.66;4992224;28;20046;-47
2022/02/07 09:44:01;;;;;;;13.07;2.17;;;;;;;5.25;100.00;100680.72;5004565;28;20053;-51
2022/02/07 09:47:07;;;;;;;15.73;2.65;;;;;;;5.51;100.00;100688.19;4995141;28;20069;-46
2022/02/07 09:50:11;;;;;;;3.33;1.30;;;;;;;5.71;100.00;100697.31;5004107;28;20049;-45
2022/02/07 09:53:14;;;;;;;2.28;0.73;;;;;;;5.90;100.00;100698.56;5014728;28;20497;-45
2022/02/07 09:56:19;;;;;;;0.32;0.32;;;;;;;6.08;100.00;100699.81;5014964;28;20049;-46
2022/02/07 09:59:27;;;;;;;1.65;0.75;;;;;;;6.28;100.00;100697.03;5014924;28;20053;-45
2022/02/07 10:02:43;;;;;;;16.05;1.88;;;;;;;6.47;100.00;100698.25;5014931;28;20065;-46
2022/02/07 10:05:52;;;;;;;2.40;1.13;;;;;;;6.65;100.00;100701.38;5014997;28;20065;-46
2022/02/07 10:09:11;;;;;;;1.00;0.77;;;;;;;6.94;100.00;100710.66;5014850;28;20069;-45
2022/02/07 10:15:36;;;;;;;1.23;0.63;;;;;;;7.44;100.00;100704.72;5016828;28;20049;-45
2022/02/07 10:18:55;;;;;;;5.80;1.27;;;;;;;7.59;100.00;100695.63;5005199;28;20065;-45
2022/02/07 10:36:07;;;;;;;10.65;1.13;;;;;;;8.29;100.00;100704.03;5014481;28;20049;-48
2022/02/07 10:45:30;;;;;;;4.45;0.60;;;;;;;8.82;100.00;100701.72;4996001;28;20049;-51
2022/02/07 10:48:34;;;;;;;0.32;0.32;;;;;;;8.98;100.00;100693.28;5012542;28;20572;-50
2022/02/07 10:51:37;;;;;;;8.57;1.55;;;;;;;9.07;100.00;100696.94;4993411;28;20395;-51
2022/02/07 10:54:50;;;;;;;1.10;0.63;;;;;;;9.30;100.00;100697.81;4994322;28;21134;-51
2022/02/07 10:57:56;;;;;;;3.40;1.15;;;;;;;9.43;100.00;100687.47;4992771;28;20073;-50
2022/02/07 11:28:02;;;;;;;3.30;0.75;;;;;;;10.36;100.00;100676.25;5021219;28;20470;-48
2022/02/07 11:44:43;;;;;;;1.75;0.65;;;;;;;10.51;100.00;100679.28;5004788;28;20050;-49
2022/02/07 12:14:38;;;;;;;0.20;0.20;;;;;;;10.14;100.00;100678.25;5044622;28;20057;-47
2022/02/07 13:30:18;;;;;;;4.10;0.43;;;;;;;11.18;100.00;100593.78;5004101;28;20061;-46
2022/02/07 14:00:17;;;;;;;1.60;0.45;;;;;;;11.92;100.00;100568.28;5040473;28;20042;-46
2022/02/07 14:42:07;;;;;;;7.72;1.52;;;;;;;11.79;100.00;100497.91;5025446;28;20046;-46
2022/02/07 15:02:13;;;;;;;2.88;0.63;;;;;;;12.21;100.00;100494.38;5044434;23;20038;-80
2022/02/07 15:05:17;;;;;;;2.15;0.40;;;;;;;12.26;100.00;100485.38;4999082;28;20053;-82
2022/02/07 15:08:22;;;;;;;0.68;0.13;;;;;;;12.28;100.00;100499.63;5009559;28;20411;-81
2022/02/07 15:11:27;;;;;;;1.00;0.63;;;;;;;12.35;100.00;100483.31;4981145;28;20053;-81
2022/02/07 15:14:30;;;;;;;2.28;0.30;;;;;;;12.31;100.00;100481.91;4981218;28;20100;-82
2022/02/07 15:17:34;;;;;;;5.00;0.80;;;;;;;12.24;100.00;100496.22;4998003;28;20057;-82
2022/02/07 15:20:40;;;;;;;0.20;0.20;;;;;;;12.17;100.00;100498.09;5010603;28;20056;-81
2022/02/07 15:23:44;;;;;;;0.10;0.10;;;;;;;12.13;100.00;100502.31;5020030;28;20056;-79
2022/02/07 15:26:48;;;;;;;0.20;0.10;;;;;;;12.15;100.00;100492.22;5020059;28;20056;-80
2022/02/07 15:29:53;;;;;;;0.57;0.20;;;;;;;12.02;100.00;100499.25;5024900;28;20060;-80
2022/02/07 15:32:58;;;;;;;1.75;0.40;;;;;;;12.05;100.00;100493.50;5012036;28;20534;-81
2022/02/07 15:36:02;;;;;;;1.05;0.22;;;;;;;12.02;100.00;100494.44;5000164;28;20057;-80
2022/02/07 15:39:08;;;;;;;0.95;0.52;;;;;;;12.01;100.00;100490.09;4999882;28;20077;-80
2022/02/07 15:42:13;;;;;;;1.45;0.52;;;;;;;12.02;100.00;100494.44;4999705;28;20048;-80
2022/02/07 15:45:18;;;;;;;0.63;0.40;;;;;;;12.02;100.00;100488.84;4999752;28;20052;-80
2022/02/07 15:48:24;;;;;;;1.23;0.55;;;;;;;11.98;100.00;100481.88;4999494;28;20125;-80
2022/02/07 15:51:27;;;;;;;9.48;0.50;;;;;;;11.99;100.00;100481.44;4998720;28;20056;-80
2022/02/07 15:54:35;;;;;;;5.22;0.95;;;;;;;11.99;100.00;100477.88;5011970;28;20069;-80
2022/02/07 15:57:39;;;;;;;2.58;0.98;;;;;;;11.94;100.00;100482.06;5013946;28;20510;-80
2022/02/07 16:00:43;;;;;;;2.20;0.43;;;;;;;11.91;100.00;100474.63;5017326;28;20080;-79
2022/02/07 16:03:46;;;;;;;0.60;0.15;;;;;;;11.96;100.00;100485.16;4999841;28;20053;-79
2022/02/07 16:06:49;;;;;;;1.52;0.38;;;;;;;11.96;100.00;100481.59;5011962;28;20077;-81
2022/02/07 16:09:53;;;;;;;1.65;0.30;;;;;;;11.94;100.00;100482.06;4999383;28;20056;-82
2022/02/07 16:13:03;;;;;;;6.07;0.40;;;;;;;11.89;100.00;100479.91;5011642;28;20057;-81
2022/02/07 16:16:10;;;;;;;0.47;0.47;;;;;;;11.99;100.00;100473.06;4999300;28;20407;-81
2022/02/07 16:19:13;;;;;;;0.10;0.10;;;;;;;12.05;100.00;100476.75;4999483;28;20061;-81
2022/02/07 16:22:16;;;;;;;0.10;0.10;;;;;;;12.11;100.00;100474.88;4999355;28;20408;-81
2022/02/07 16:25:20;;;;;;;0.73;0.15;;;;;;;12.11;100.00;100480.44;4999563;28;20101;-81
2022/02/07 16:28:24;;;;;;;0.10;0.10;;;;;;;12.18;100.00;100466.16;4999514;28;20053;-81
2022/02/07 16:31:27;;;;;;;0.75;0.30;;;;;;;12.31;100.00;100477.13;4985475;28;20053;-80
2022/02/07 16:34:31;;;;;;;0.57;0.10;;;;;;;12.41;100.00;100467.44;4991905;28;20507;-81
2022/02/07 16:37:34;;;;;;;0.40;0.10;;;;;;;12.64;100.00;100460.34;4992031;28;20053;-80
2022/02/07 16:40:39;;;;;;;1.13;0.20;;;;;;;12.76;100.00;100462.13;4992453;28;20065;-79
2022/02/07 16:43:42;;;;;;;0.10;0.10;;;;;;;12.88;100.00;100469.50;5011464;28;20053;-79
2022/02/07 16:46:49;;;;;;;0.47;0.20;;;;;;;12.97;100.00;100461.06;5014167;28;20053;-80
2022/02/07 16:49:52;;;;;;;0.63;0.45;;;;;;;13.03;100.00;100467.53;5016177;28;20068;-80
2022/02/07 16:52:56;;;;;;;0.82;0.10;;;;;;;13.05;100.00;100459.47;5015526;28;20049;-81
2022/02/07 16:56:00;;;;;;;1.90;0.75;;;;;;;13.04;100.00;100466.25;5015697;28;20423;-79
2022/02/07 16:59:05;;;;;;;0.98;0.50;;;;;;;13.17;100.00;100458.41;5021843;28;20502;-79
2022/02/07 17:02:10;;;;;;;7.13;0.60;;;;;;;13.21;100.00;100456.22;5002358;28;20298;-80
2022/02/07 17:05:18;;;;;;;0.60;0.50;;;;;;;13.19;100.00;100449.56;5014406;28;20069;-79
2022/02/07 17:08:21;;;;;;;4.13;0.77;;;;;;;13.21;100.00;100459.00;5014431;28;20053;-79
2022/02/07 17:11:25;;;;;;;1.60;0.63;;;;;;;13.23;100.00;100452.94;5014613;28;20522;-79
2022/02/07 17:14:29;;;;;;;2.95;1.13;;;;;;;13.15;100.00;100446.94;5002771;28;20506;-80
2022/02/07 17:17:32;;;;;;;0.52;0.40;;;;;;;13.09;100.00;100440.47;5002450;28;20072;-79
2022/02/07 17:20:36;;;;;;;0.28;0.22;;;;;;;13.03;100.00;100441.59;5002289;28;20073;-80
2022/02/07 17:23:40;;;;;;;5.97;0.75;;;;;;;12.97;100.00;100438.69;5001930;28;20056;-80
2022/02/07 17:26:43;;;;;;;0.68;0.25;;;;;;;13.12;100.00;100439.53;5014274;28;20290;-78
2022/02/07 17:29:46;;;;;;;1.95;0.20;;;;;;;13.13;100.00;100441.06;5002439;28;20057;-79
2022/02/07 17:32:50;;;;;;;0.30;0.30;;;;;;;13.14;100.00;100436.25;5002680;28;20073;-78
2022/02/07 17:35:54;;;;;;;1.25;0.28;;;;;;;13.05;100.00;100451.06;5002024;28;20057;-79
2022/02/07 17:38:58;;;;;;;0.57;0.25;;;;;;;13.03;100.00;100441.59;5001951;28;20086;-79
2022/02/07 17:42:04;;;;;;;2.85;0.65;;;;;;;13.00;100.00;100437.72;4983076;28;20062;-80
2022/02/07 17:45:14;;;;;;;0.10;0.10;;;;;;;12.97;100.00;100444.28;4982934;28;20503;-80
2022/02/07 17:48:17;;;;;;;1.67;0.20;;;;;;;12.99;100.00;100452.19;4982352;28;20065;-79
2022/02/07 17:51:21;;;;;;;0.10;0.00;;;;;;;12.93;100.00;100452.06;5013048;28;20053;-79
2022/02/07 17:54:26;;;;;;;0.10;0.10;;;;;;;12.89;100.00;100454.25;5014145;28;20057;-80
2022/02/07 17:57:29;;;;;;;1.90;0.82;;;;;;;12.89;100.00;100454.25;5026181;28;20048;-80
2022/02/07 18:00:33;;;;;;;7.25;1.00;;;;;;;12.86;100.00;100452.44;5021618;28;20056;-80
2022/02/07 18:03:37;;;;;;;10.20;1.35;;;;;;;12.85;100.00;100459.25;5013466;28;20057;-80
2022/02/07 18:06:41;;;;;;;2.58;0.52;;;;;;;12.82;100.00;100460.22;5001820;28;20046;-79
2022/02/07 18:09:45;;;;;;;1.45;0.43;;;;;;;12.80;100.00;100457.13;4999554;28;20499;-79
2022/02/07 18:12:48;;;;;;;2.33;0.30;;;;;;;12.78;100.00;100459.63;4982133;28;20130;-78
2022/02/07 18:15:57;;;;;;;14.63;2.38;;;;;;;12.77;100.00;100455.28;4982170;28;20050;-79
2022/02/07 18:19:02;;;;;;;2.75;0.65;;;;;;;12.73;100.00;100466.63;4993699;28;20050;-79
2022/02/07 18:22:11;;;;;;;2.28;0.77;;;;;;;12.68;100.00;100460.94;5013211;28;20057;-78
2022/02/07 18:25:16;;;;;;;0.55;0.35;;;;;;;12.63;100.00;100458.78;5013676;28;20440;-79
2022/02/07 18:28:21;;;;;;;0.82;0.25;;;;;;;12.55;100.00;100449.22;5013540;28;20053;-79
2022/02/07 18:31:25;;;;;;;0.73;0.47;;;;;;;12.47;100.00;100450.81;5001378;28;20053;-80
2022/02/07 18:34:33;;;;;;;1.00;0.63;;;;;;;12.37;100.00;100452.88;5001232;28;20121;-80
2022/02/07 18:37:38;;;;;;;0.70;0.20;;;;;;;12.26;100.00;100451.88;5013722;28;20403;-79
2022/02/07 18:40:48;;;;;;;1.08;0.60;;;;;;;12.31;100.00;100459.56;5017773;28;20045;-81
2022/02/07 18:43:55;;;;;;;3.33;0.35;;;;;;;12.36;100.00;100462.50;4995705;28;20049;-80
2022/02/07 18:46:58;;;;;;;0.85;0.63;;;;;;;12.34;100.00;100469.81;4993618;28;20073;-80
2022/02/07 18:50:02;;;;;;;1.20;0.40;;;;;;;12.29;100.00;100473.25;5001579;28;20049;-81
2022/02/07 18:53:07;;;;;;;1.48;0.82;;;;;;;12.02;100.00;100483.28;5001301;28;20053;-81
2022/02/07 18:56:11;;;;;;;1.58;0.80;;;;;;;12.21;100.00;100486.78;5003322;28;20057;-82
2022/02/07 18:59:19;;;;;;;1.60;0.90;;;;;;;12.19;100.00;100487.22;5017326;28;20052;-80
2022/02/07 19:02:33;;;;;;;6.85;0.60;;;;;;;12.26;100.00;100488.16;4981274;28;20069;-81
2022/02/07 19:05:51;;;;;;;1.40;0.75;;;;;;;12.27;100.00;100472.94;4990582;28;20053;-83
2022/02/07 19:08:55;;;;;;;0.45;0.30;;;;;;;12.27;100.00;100475.72;4983373;28;20075;-82
2022/02/07 19:11:58;;;;;;;3.70;0.60;;;;;;;12.30;100.00;100475.56;5000604;28;20049;-81
2022/02/07 19:15:05;;;;;;;0.52;0.40;;;;;;;12.32;100.00;100477.91;5000199;28;20072;-81
2022/02/07 19:18:11;;;;;;;0.88;0.40;;;;;;;12.34;100.00;100483.78;5012363;28;20125;-81
2022/02/07 19:21:16;;;;;;;1.27;1.05;;;;;;;12.36;100.00;100489.66;5000119;28;20061;-82
2022/02/07 19:24:36;;;;;;;2.38;0.88;;;;;;;12.35;100.00;100499.28;5012455;28;20057;-81
2022/02/07 19:27:55;;;;;;;3.08;0.25;;;;;;;12.36;100.00;100496.03;4999849;28;20061;-82
2022/02/07 19:31:23;;;;;;;4.55;0.95;;;;;;;12.32;100.00;100489.06;5000339;28;20076;-82
2022/02/07 19:34:32;;;;;;;0.40;0.35;;;;;;;12.31;100.00;100484.72;5012096;28;20048;-81
2022/02/07 19:37:36;;;;;;;0.43;0.43;;;;;;;12.28;100.00;100482.88;4999627;28;20743;-81
2022/02/07 19:40:51;;;;;;;14.65;0.90;;;;;;;12.24;100.00;100476.66;5000090;28;20425;-80
2022/02/07 19:43:55;;;;;;;8.13;1.05;;;;;;;12.17;100.00;100484.16;5008467;28;20038;-80
2022/02/07 19:47:01;;;;;;;2.85;0.60;;;;;;;12.19;100.00;100504.00;5008370;28;20404;-83
2022/02/07 19:50:05;;;;;;;1.65;0.98;;;;;;;12.18;100.00;100499.66;4980775;28;20049;-82
2022/02/07 19:53:09;;;;;;;3.92;0.45;;;;;;;12.21;100.00;100491.59;4992466;28;20049;-81
2022/02/07 19:56:13;;;;;;;2.28;1.52;;;;;;;12.12;100.00;100495.97;5006772;28;20045;-82
2022/02/07 19:59:16;;;;;;;2.63;0.25;;;;;;;12.17;100.00;100489.72;5013198;28;20061;-82
2022/02/07 20:02:23;;;;;;;0.52;0.30;;;;;;;12.28;100.00;100488.47;5011866;28;20061;-81
2022/02/07 20:05:30;;;;;;;3.40;0.65;;;;;;;12.32;100.00;100478.69;4999688;28;20056;-81
2022/02/07 20:08:34;;;;;;;2.17;0.57;;;;;;;12.50;100.00;100483.38;5011904;28;20404;-80
2022/02/07 20:11:43;;;;;;;1.67;0.30;;;;;;;12.45;100.00;100486.84;4999254;28;20407;-79
2022/02/07 20:14:50;;;;;;;1.00;0.45;;;;;;;12.43;100.00;100478.91;5011420;28;20044;-80
2022/02/07 20:17:55;;;;;;;1.58;0.38;;;;;;;12.44;100.00;100474.88;4999486;28;20514;-80
2022/02/07 20:20:58;;;;;;;0.40;0.22;;;;;;;12.44;100.00;100469.28;5011387;28;20079;-79
2022/02/07 20:24:01;;;;;;;0.70;0.28;;;;;;;12.34;100.00;100458.66;4999224;28;20407;-79
2022/02/07 20:27:07;;;;;;;2.00;0.38;;;;;;;12.28;100.00;100466.13;5011306;28;20056;-80
2022/02/07 20:30:14;;;;;;;0.50;0.22;;;;;;;12.31;100.00;100454.78;4991180;28;20061;-81
2022/02/07 20:33:20;;;;;;;3.60;0.60;;;;;;;12.42;100.00;100466.19;4979528;28;20096;-80
2022/02/07 20:36:23;;;;;;;0.20;0.20;;;;;;;12.52;100.00;100458.53;4991413;28;20404;-80
2022/02/07 20:39:26;;;;;;;0.20;0.10;;;;;;;12.54;100.00;100448.44;4995194;28;20061;-80
2022/02/07 20:42:30;;;;;;;1.48;0.77;;;;;;;12.57;100.00;100447.50;4991776;28;20403;-81
2022/02/07 20:45:43;;;;;;;0.15;0.15;;;;;;;12.53;100.00;100460.09;4979419;28;20050;-81
2022/02/07 20:48:51;;;;;;;1.23;0.38;;;;;;;12.48;100.00;100455.91;4979139;28;20058;-79
2022/02/07 20:51:55;;;;;;;1.15;0.40;;;;;;;12.44;100.00;100446.16;4991147;28;20077;-80
2022/02/07 20:54:58;;;;;;;0.22;0.20;;;;;;;12.36;100.00;100456.94;4979697;28;20404;-80
2022/02/07 20:58:03;;;;;;;1.20;0.20;;;;;;;12.33;100.00;100459.88;5025678;28;20049;-81
2022/02/07 21:01:11;;;;;;;2.83;0.32;;;;;;;12.32;100.00;100452.75;5013583;28;20061;-80
2022/02/07 21:04:16;;;;;;;0.88;0.63;;;;;;;12.19;100.00;100466.94;4998648;28;20053;-81
2022/02/07 21:07:20;;;;;;;0.10;0.10;;;;;;;12.22;100.00;100470.78;4998957;28;20061;-80
2022/02/07 21:10:23;;;;;;;0.55;0.20;;;;;;;12.22;100.00;100456.81;5010998;28;20057;-81
2022/02/07 21:13:27;;;;;;;0.10;0.08;;;;;;;12.17;100.00;100461.81;5011325;28;20057;-81
2022/02/07 21:16:30;;;;;;;0.77;0.28;;;;;;;12.11;100.00;100458.13;4999021;28;20451;-79
2022/02/07 21:19:39;;;;;;;3.47;0.50;;;;;;;12.08;100.00;100470.22;5011094;28;20061;-79
2022/02/07 21:22:44;;;;;;;0.32;0.20;;;;;;;12.05;100.00;100471.16;4999093;28;20053;-80
2022/02/07 21:25:47;;;;;;;2.20;0.30;;;;;;;12.01;100.00;100462.19;5011433;28;20052;-80
2022/02/07 21:28:51;;;;;;;0.15;0.05;;;;;;;12.05;100.00;100487.16;4998957;28;20053;-83
2022/02/07 21:31:54;;;;;;;0.10;0.10;;;;;;;11.92;100.00;100483.78;5000710;28;20641;-81
2022/02/07 21:34:57;;;;;;;1.42;0.25;;;;;;;11.93;100.00;100480.50;5014345;28;20434;-87
2022/02/07 21:38:02;;;;;;;2.03;0.57;;;;;;;11.91;100.00;100494.16;5002295;28;20511;-83